Time;durP1;ratioP1;P1;durP2;ratioP2;P2;SDS_P1;SDS_P2;PMS_P1;PMS_P2;Temp;Humidity;BMP_temperature;BMP_pressure;BME280_temperature;BME280_humidity;BME280_pressure;Samples;Min_cycle;Max_cycle;Signal;HPM_P1;HPM_P2
2021/09/25 00:00:08;;;;;;;17.00;3.62;;;;;;;8.18;100.00;99799.06;1749302;82;21833;-54
2021/09/25 00:02:34;;;;;;;21.12;3.30;;;;;;;8.16;100.00;99798.25;1749319;82;21779;-52
2021/09/25 00:05:01;;;;;;;19.67;2.85;;;;;;;8.19;100.00;99800.77;1749199;82;21478;-54
2021/09/25 00:07:27;;;;;;;8.05;2.30;;;;;;;8.17;100.00;99796.95;1749132;82;20979;-51
2021/09/25 00:09:54;;;;;;;15.80;3.10;;;;;;;8.16;100.00;99795.67;1749199;82;21489;-54
2021/09/25 00:12:20;;;;;;;20.17;3.65;;;;;;;8.12;100.00;99799.19;1749206;82;21488;-52
2021/09/25 00:14:47;;;;;;;18.32;3.12;;;;;;;8.09;100.00;99800.12;1749201;82;21879;-53
2021/09/25 00:17:13;;;;;;;17.45;2.85;;;;;;;8.08;100.00;99804.00;1721501;82;21237;-52
2021/09/25 00:19:41;;;;;;;32.40;4.25;;;;;;;8.05;100.00;99803.18;1749290;82;21023;-52
2021/09/25 00:22:07;;;;;;;33.53;4.12;;;;;;;8.03;100.00;99804.08;1749144;82;20951;-54
2021/09/25 00:24:34;;;;;;;27.67;4.08;;;;;;;8.02;100.00;99804.53;1749333;82;21030;-54
2021/09/25 00:27:00;;;;;;;18.60;3.10;;;;;;;8.04;100.00;99807.92;1749024;82;20936;-54
2021/09/25 00:29:27;;;;;;;17.27;3.00;;;;;;;8.06;100.00;99810.45;1749102;82;20953;-55
2021/09/25 00:31:54;;;;;;;19.45;3.15;;;;;;;8.04;100.00;99809.64;1749259;82;20916;-52
2021/09/25 00:34:20;;;;;;;15.35;2.40;;;;;;;8.05;100.00;99818.64;1749173;82;20994;-53
2021/09/25 00:36:48;;;;;;;31.52;3.50;;;;;;;8.07;100.00;99812.61;1746301;81;21577;-54
2021/09/25 00:39:14;;;;;;;26.75;3.37;;;;;;;8.08;100.00;99815.14;1735380;82;21772;-53
2021/09/25 00:41:41;;;;;;;40.90;4.30;;;;;;;8.12;100.00;99815.95;1735049;82;20976;-54
2021/09/25 00:44:07;;;;;;;31.23;3.22;;;;;;;8.15;100.00;99818.47;1735268;82;20965;-54
2021/09/25 00:46:33;;;;;;;58.85;5.03;;;;;;;8.22;100.00;99824.36;1735135;82;21562;-54
2021/09/25 00:49:00;;;;;;;51.88;5.47;;;;;;;8.26;100.00;99819.55;1735363;81;21051;-54
2021/09/25 00:51:27;;;;;;;64.77;4.90;;;;;;;8.27;100.00;99820.83;1735250;81;21206;-52
2021/09/25 00:53:53;;;;;;;43.17;5.28;;;;;;;8.25;100.00;99823.02;1735174;81;21562;-52
2021/09/25 00:56:19;;;;;;;107.07;6.00;;;;;;;8.24;100.00;99821.31;1735222;82;20937;-53
2021/09/25 00:58:46;;;;;;;41.85;4.15;;;;;;;8.20;100.00;99821.38;1735231;81;20972;-52
2021/09/25 01:01:12;;;;;;;24.50;3.27;;;;;;;8.18;100.00;99818.41;1735294;82;21518;-53
2021/09/25 01:03:38;;;;;;;46.58;4.20;;;;;;;8.17;100.00;99823.16;1714462;82;21080;-54
2021/09/25 01:06:05;;;;;;;35.10;4.10;;;;;;;8.18;100.00;99820.98;1735123;82;21015;-53
2021/09/25 01:08:31;;;;;;;24.07;2.85;;;;;;;8.19;100.00;99829.12;1735341;82;21628;-53
2021/09/25 01:10:57;;;;;;;41.68;5.37;;;;;;;8.19;100.00;99825.26;1714104;82;21028;-53
2021/09/25 01:13:24;;;;;;;33.78;3.52;;;;;;;8.22;100.00;99832.97;1714348;82;21573;-53
2021/09/25 01:15:50;;;;;;;32.88;4.28;;;;;;;8.23;100.00;99828.64;1735391;82;21339;-54
2021/09/25 01:18:17;;;;;;;22.10;3.15;;;;;;;8.24;100.00;99838.08;1714228;82;20937;-53
2021/09/25 01:20:44;;;;;;;11.00;2.35;;;;;;;8.24;100.00;99836.36;1735268;82;20917;-54
2021/09/25 01:23:10;;;;;;;8.85;2.00;;;;;;;8.26;100.00;99835.89;1735043;81;20984;-55
2021/09/25 01:25:36;;;;;;;16.12;2.47;;;;;;;8.30;100.00;99837.53;1714168;82;21000;-53
2021/09/25 01:28:03;;;;;;;5.00;1.90;;;;;;;8.33;100.00;99843.05;1714360;82;21127;-53
2021/09/25 01:30:30;;;;;;;17.98;2.92;;;;;;;8.34;100.00;99844.32;1714119;82;21083;-51
2021/09/25 01:32:58;;;;;;;9.43;2.00;;;;;;;8.37;100.00;99842.14;1735370;82;20928;-51
2021/09/25 01:35:24;;;;;;;10.82;1.60;;;;;;;8.39;100.00;99844.67;1735085;82;20997;-52
2021/09/25 01:37:52;;;;;;;7.72;2.15;;;;;;;8.40;100.00;99838.63;1735252;81;21000;-55
2021/09/25 01:40:19;;;;;;;5.53;1.87;;;;;;;8.42;100.00;99848.48;1735343;81;21852;-52
2021/09/25 01:42:46;;;;;;;8.90;1.80;;;;;;;8.45;100.00;99848.41;1735276;82;21518;-51
2021/09/25 01:45:13;;;;;;;27.42;2.83;;;;;;;8.46;100.00;99848.82;1714399;82;21478;-52
2021/09/25 01:47:39;;;;;;;24.45;2.47;;;;;;;8.50;100.00;99851.81;1735242;82;21538;-52
2021/09/25 01:50:10;;;;;;;40.60;3.85;;;;;;;8.52;100.00;99852.62;1735181;82;21581;-54
2021/09/25 01:52:36;;;;;;;73.25;5.42;;;;;;;8.56;100.00;99851.69;1735209;82;21147;-52
2021/09/25 01:55:04;;;;;;;138.60;9.15;;;;;;;8.60;100.00;99851.20;1735263;82;20972;-53
2021/09/25 01:57:31;;;;;;;206.53;11.05;;;;;;;8.65;100.00;99857.53;1735322;82;21506;-55
2021/09/25 01:59:57;;;;;;;116.20;7.40;;;;;;;8.68;100.00;99863.91;1735172;82;21004;-53
2021/09/25 02:02:23;;;;;;;72.30;5.70;;;;;;;8.71;100.00;99863.84;1735372;82;20985;-51
2021/09/25 02:04:50;;;;;;;51.73;4.55;;;;;;;8.73;100.00;99868.11;1735347;82;21144;-51
2021/09/25 02:07:18;;;;;;;23.67;2.95;;;;;;;8.75;100.00;99868.93;1735118;82;20937;-51
2021/09/25 02:09:45;;;;;;;38.15;3.75;;;;;;;8.77;100.00;99874.91;1714238;82;20948;-56
2021/09/25 02:12:11;;;;;;;26.62;3.80;;;;;;;8.79;100.00;99874.89;1735236;81;20980;-51
2021/09/25 02:14:38;;;;;;;33.02;3.27;;;;;;;8.81;100.00;99882.16;1735203;82;21514;-52
2021/09/25 02:17:05;;;;;;;58.68;3.87;;;;;;;8.81;100.00;99879.58;1735197;82;21119;-51
2021/09/25 02:19:31;;;;;;;63.50;5.90;;;;;;;8.83;100.00;99886.84;1735164;82;21475;-54
2021/09/25 02:21:57;;;;;;;151.75;7.03;;;;;;;8.85;100.00;99881.66;1735169;82;20956;-54
2021/09/25 02:24:24;;;;;;;38.58;3.20;;;;;;;8.86;100.00;99889.36;1735094;82;20925;-53
2021/09/25 02:26:51;;;;;;;34.70;4.12;;;;;;;8.87;100.00;99885.06;1735175;82;21024;-54
2021/09/25 02:29:18;;;;;;;40.05;2.83;;;;;;;8.85;100.00;99888.95;1735084;82;21274;-54
2021/09/25 02:31:44;;;;;;;54.33;4.45;;;;;;;8.84;100.00;99888.55;1735168;82;21019;-52
2021/09/25 02:34:10;;;;;;;38.40;4.37;;;;;;;8.86;100.00;99892.40;1735202;82;20925;-55
2021/09/25 02:36:37;;;;;;;27.05;3.33;;;;;;;8.86;100.00;99891.11;1734997;82;21027;-55
2021/09/25 02:39:03;;;;;;;68.07;4.92;;;;;;;8.85;100.00;99899.27;1735046;82;20964;-52
2021/09/25 02:41:30;;;;;;;31.10;3.25;;;;;;;8.85;100.00;99902.31;1735184;82;21100;-52
2021/09/25 02:43:56;;;;;;;64.55;6.10;;;;;;;8.84;100.00;99904.03;1735057;82;21040;-54
2021/09/25 02:46:23;;;;;;;29.35;3.98;;;;;;;8.82;100.00;99901.92;1735156;82;21498;-51
2021/09/25 02:48:49;;;;;;;31.17;3.87;;;;;;;8.81;100.00;99910.55;1735197;82;20996;-53
2021/09/25 02:51:16;;;;;;;12.10;2.75;;;;;;;8.81;100.00;99909.26;1735135;81;20922;-53
2021/09/25 02:53:43;;;;;;;26.07;3.65;;;;;;;8.80;100.00;99913.14;1735061;82;21753;-55
2021/09/25 02:56:10;;;;;;;20.10;3.33;;;;;;;8.78;100.00;99915.77;1734949;81;20989;-55
2021/09/25 02:58:37;;;;;;;21.55;3.37;;;;;;;8.76;100.00;99918.37;1735075;82;21210;-55
2021/09/25 03:01:03;;;;;;;17.60;2.80;;;;;;;8.76;100.00;99920.95;1735107;82;21470;-52
2021/09/25 03:03:29;;;;;;;26.97;3.12;;;;;;;8.76;100.00;99926.11;1735122;81;21000;-53
2021/09/25 03:05:56;;;;;;;11.95;2.42;;;;;;;8.75;100.00;99918.42;1735191;82;21311;-55
2021/09/25 03:08:22;;;;;;;21.82;3.15;;;;;;;8.75;100.00;99929.57;1735020;82;21467;-52
2021/09/25 03:10:49;;;;;;;56.35;4.72;;;;;;;8.75;100.00;99930.86;1735102;82;21572;-52
2021/09/25 03:13:15;;;;;;;23.98;3.58;;;;;;;8.75;100.00;99933.44;1735068;81;21467;-53
2021/09/25 03:15:41;;;;;;;9.18;2.52;;;;;;;8.75;100.00;99935.19;1735185;82;21591;-55
2021/09/25 03:18:08;;;;;;;69.32;6.35;;;;;;;8.75;100.00;99936.02;1735064;81;21754;-51
2021/09/25 03:20:34;;;;;;;31.73;4.42;;;;;;;8.75;100.00;99942.48;1735176;82;20945;-54
2021/09/25 03:23:01;;;;;;;41.40;3.72;;;;;;;8.75;100.00;99948.92;1735094;82;20968;-55
2021/09/25 03:25:27;;;;;;;31.25;3.27;;;;;;;8.74;100.00;99952.84;1714211;82;21538;-53
2021/09/25 03:27:54;;;;;;;39.98;4.42;;;;;;;8.72;100.00;99952.86;1735073;82;21510;-53
2021/09/25 03:30:21;;;;;;;8.78;2.92;;;;;;;8.73;100.00;99960.17;1734965;82;21927;-53
2021/09/25 03:32:47;;;;;;;31.87;3.50;;;;;;;8.74;100.00;99964.45;1735043;81;21703;-52
2021/09/25 03:35:14;;;;;;;32.05;3.58;;;;;;;8.75;100.00;99966.16;1735049;82;21008;-54
2021/09/25 03:37:40;;;;;;;32.85;3.80;;;;;;;8.75;100.00;99973.44;1736677;81;21023;-54
2021/09/25 03:40:09;;;;;;;39.48;4.35;;;;;;;8.74;100.00;99969.16;1718367;82;20950;-54
2021/09/25 03:42:36;;;;;;;30.88;3.92;;;;;;;8.75;100.00;99978.61;1745341;82;21126;-53
2021/09/25 03:45:05;;;;;;;43.75;3.87;;;;;;;8.76;100.00;99979.02;1745363;82;21597;-52
2021/09/25 03:47:31;;;;;;;55.88;5.15;;;;;;;8.78;100.00;99985.45;1745422;82;21000;-55
2021/09/25 03:49:58;;;;;;;49.95;4.65;;;;;;;8.77;100.00;99983.30;1745218;82;21028;-51
2021/09/25 03:54:15;;;;;;;48.00;4.72;;;;;;;8.84;100.00;99988.34;1797650;79;22662;-54
2021/09/25 03:56:41;;;;;;;35.52;3.70;;;;;;;8.80;100.00;99994.02;1757354;81;21020;-54
2021/09/25 03:59:08;;;;;;;21.90;3.47;;;;;;;8.81;100.00;100001.30;1757618;81;21126;-53
2021/09/25 04:01:34;;;;;;;17.48;2.92;;;;;;;8.84;100.00;100001.24;1738011;81;20936;-50
2021/09/25 04:04:00;;;;;;;6.00;1.82;;;;;;;8.83;100.00;100008.16;1757453;81;21031;-51
2021/09/25 04:06:27;;;;;;;4.22;1.50;;;;;;;8.87;100.00;100008.50;1757492;81;20948;-52
2021/09/25 04:08:54;;;;;;;10.28;2.45;;;;;;;8.89;100.00;100014.48;1757586;81;20928;-52
2021/09/25 04:11:20;;;;;;;3.72;1.67;;;;;;;8.91;100.00;100014.02;1738064;81;21741;-55
2021/09/25 04:13:46;;;;;;;4.10;1.52;;;;;;;8.96;100.00;100017.80;1757212;80;21008;-52
2021/09/25 04:16:13;;;;;;;11.48;1.40;;;;;;;9.01;100.00;100005.66;1757327;81;20976;-52
2021/09/25 04:18:39;;;;;;;16.70;1.72;;;;;;;9.04;100.00;100004.77;1757239;81;21038;-52
2021/09/25 04:21:06;;;;;;;6.75;1.27;;;;;;;9.09;100.00;100013.69;1757437;81;20912;-52
2021/09/25 04:23:32;;;;;;;0.85;0.82;;;;;;;9.10;100.00;100005.92;1752161;81;21143;-52
2021/09/25 04:25:58;;;;;;;29.12;3.02;;;;;;;9.15;100.00;100009.72;1748980;82;20943;-54
2021/09/25 04:28:25;;;;;;;14.53;2.52;;;;;;;9.17;100.00;100015.24;1744162;81;20897;-53
2021/09/25 04:30:51;;;;;;;7.45;1.62;;;;;;;9.22;100.00;100011.72;1749165;82;21015;-52
2021/09/25 04:33:18;;;;;;;2.95;1.40;;;;;;;9.26;100.00;100015.51;1749240;82;21513;-54
2021/09/25 04:35:44;;;;;;;5.97;1.20;;;;;;;9.34;100.00;100019.23;1748954;82;21121;-53
2021/09/25 04:38:11;;;;;;;5.78;0.85;;;;;;;9.41;100.00;100025.97;1749030;82;20976;-50
2021/09/25 04:40:37;;;;;;;6.05;1.17;;;;;;;9.46;100.00;100024.59;1749218;82;20980;-53
2021/09/25 04:43:03;;;;;;;5.00;0.93;;;;;;;9.48;100.00;100024.12;1748936;81;20975;-51
2021/09/25 04:45:30;;;;;;;4.08;1.00;;;;;;;9.51;100.00;100029.67;1719295;82;20979;-54
2021/09/25 04:47:56;;;;;;;1.70;0.60;;;;;;;9.54;100.00;100033.48;1748852;81;21182;-54
2021/09/25 04:50:28;;;;;;;1.85;0.88;;;;;;;9.55;100.00;100037.31;1748979;82;20940;-53
2021/09/25 04:52:52;;;;;;;1.20;0.70;;;;;;;9.56;100.00;100042.88;1748683;81;20995;-53
2021/09/25 04:55:18;;;;;;;3.98;0.85;;;;;;;9.58;100.00;100049.33;1749772;82;20995;-51
2021/09/25 04:57:44;;;;;;;5.87;0.85;;;;;;;9.59;100.00;100045.40;1749851;82;21532;-52
2021/09/25 05:00:12;;;;;;;1.67;0.70;;;;;;;9.65;100.00;100049.59;1722036;82;20960;-52
2021/09/25 05:02:39;;;;;;;0.72;0.72;;;;;;;9.73;100.00;100054.61;1749718;82;20944;-52
2021/09/25 05:05:07;;;;;;;1.62;0.70;;;;;;;9.83;100.00;100056.56;1749466;82;21596;-54
2021/09/25 05:07:36;;;;;;;3.12;0.80;;;;;;;9.88;100.00;100058.17;1749292;80;21548;-54
2021/09/25 05:10:02;;;;;;;1.57;0.70;;;;;;;9.93;100.00;100059.34;1749188;82;20972;-55
2021/09/25 05:12:28;;;;;;;3.33;0.98;;;;;;;9.94;100.00;100057.16;1748982;81;21052;-54
2021/09/25 05:14:55;;;;;;;0.93;0.55;;;;;;;9.94;100.00;100064.91;1749323;80;21486;-54
2021/09/25 05:17:21;;;;;;;1.60;0.90;;;;;;;9.93;100.00;100082.61;1749348;82;20999;-52
2021/09/25 05:19:48;;;;;;;0.75;0.70;;;;;;;9.92;100.00;100084.78;1721376;82;20987;-52
2021/09/25 05:22:15;;;;;;;0.82;0.50;;;;;;;9.94;100.00;100086.89;1749144;82;21022;-53
2021/09/25 05:24:41;;;;;;;2.02;0.78;;;;;;;9.94;100.00;100093.36;1721454;82;22806;-53
2021/09/25 05:27:08;;;;;;;1.92;0.70;;;;;;;9.97;100.00;100091.16;1749189;82;20986;-54
2021/09/25 05:29:34;;;;;;;1.55;0.80;;;;;;;9.98;100.00;100093.73;1738250;82;20967;-52
2021/09/25 05:32:02;;;;;;;1.10;0.80;;;;;;;10.00;100.00;100095.84;1721259;82;21027;-53
2021/09/25 05:34:29;;;;;;;0.80;0.80;;;;;;;10.04;100.00;100094.87;1749197;82;20961;-52
2021/09/25 05:36:57;;;;;;;2.52;0.90;;;;;;;10.09;100.00;100098.64;1721511;82;21145;-53
2021/09/25 05:39:24;;;;;;;1.40;0.40;;;;;;;10.13;100.00;100103.31;1738467;82;20984;-52
2021/09/25 05:41:51;;;;;;;0.88;0.70;;;;;;;10.17;100.00;100115.28;1721420;82;21039;-54
2021/09/25 05:44:17;;;;;;;2.62;0.70;;;;;;;10.18;100.00;100119.14;1749259;82;20917;-52
2021/09/25 05:46:44;;;;;;;1.72;0.85;;;;;;;10.18;100.00;100115.69;1749335;82;20944;-53
2021/09/25 05:49:10;;;;;;;0.65;0.60;;;;;;;10.20;100.00;100122.97;1749298;82;21112;-53
2021/09/25 05:51:36;;;;;;;1.72;0.72;;;;;;;10.26;100.00;100118.98;1749199;82;20972;-53
2021/09/25 05:54:03;;;;;;;1.52;0.90;;;;;;;10.32;100.00;100135.65;1726549;81;20964;-55
2021/09/25 05:56:29;;;;;;;3.22;0.70;;;;;;;10.34;100.00;100133.88;1756876;81;20904;-55
2021/09/25 05:58:56;;;;;;;0.57;0.57;;;;;;;10.37;99.97;100145.04;1756927;81;20939;-53
2021/09/25 06:01:22;;;;;;;3.77;0.75;;;;;;;10.39;99.79;100150.59;1757032;81;21078;-52
2021/09/25 06:03:48;;;;;;;1.02;0.65;;;;;;;10.42;100.00;100156.16;1757002;81;21068;-52
2021/09/25 06:06:15;;;;;;;4.25;0.80;;;;;;;10.42;98.97;100160.04;1757101;81;20928;-53
2021/09/25 06:08:41;;;;;;;3.10;0.82;;;;;;;10.41;99.04;100157.91;1757028;81;20936;-54
2021/09/25 06:11:08;;;;;;;1.35;0.60;;;;;;;10.41;98.76;100166.97;1757006;81;21474;-55
2021/09/25 06:13:34;;;;;;;2.02;0.80;;;;;;;10.42;98.72;100176.86;1756909;81;21014;-52
2021/09/25 06:16:00;;;;;;;2.10;0.80;;;;;;;10.47;98.95;100181.48;1756741;81;20928;-51
2021/09/25 06:18:27;;;;;;;0.70;0.60;;;;;;;10.49;98.47;100182.33;1757003;81;20971;-52
2021/09/25 06:20:53;;;;;;;7.47;0.90;;;;;;;10.52;98.52;100189.16;1756889;81;20998;-53
2021/09/25 06:23:19;;;;;;;2.05;0.60;;;;;;;10.54;98.00;100197.30;1756943;81;20944;-53
2021/09/25 06:25:46;;;;;;;0.80;0.42;;;;;;;10.61;98.26;100205.79;1757156;81;21174;-55
2021/09/25 06:28:12;;;;;;;2.15;0.95;;;;;;;10.63;97.29;100199.67;1728868;81;20936;-53
2021/09/25 06:30:41;;;;;;;2.67;0.70;;;;;;;10.72;97.42;100212.86;1757022;81;20983;-55
2021/09/25 06:33:09;;;;;;;3.83;0.90;;;;;;;10.76;96.67;100216.23;1756925;81;21519;-54
2021/09/25 06:35:36;;;;;;;5.00;1.00;;;;;;;10.78;96.42;100222.23;1728976;81;20978;-53
2021/09/25 06:38:03;;;;;;;3.05;1.20;;;;;;;10.78;96.76;100225.66;1757045;81;21874;-53
2021/09/25 06:40:30;;;;;;;3.52;1.05;;;;;;;10.80;96.84;100230.81;1756872;81;21709;-52
2021/09/25 06:42:57;;;;;;;3.50;0.78;;;;;;;10.84;96.61;100231.14;1757041;81;20961;-54
2021/09/25 06:45:24;;;;;;;1.17;0.90;;;;;;;10.88;96.54;100225.00;1756972;80;20979;-53
2021/09/25 06:47:51;;;;;;;1.95;0.90;;;;;;;10.99;95.78;100231.22;1756919;81;21016;-52
2021/09/25 06:50:17;;;;;;;2.83;0.65;;;;;;;11.08;95.82;100240.52;1756964;81;21564;-52
2021/09/25 06:52:44;;;;;;;1.47;0.90;;;;;;;11.16;95.23;100233.41;1756729;81;20984;-53
2021/09/25 06:55:11;;;;;;;1.07;0.90;;;;;;;11.25;94.37;100232.80;1735238;82;21482;-52
2021/09/25 06:57:37;;;;;;;7.30;1.02;;;;;;;11.32;94.05;100242.11;1734901;82;21561;-55
2021/09/25 07:00:07;;;;;;;4.10;0.70;;;;;;;11.36;93.79;100248.45;1735375;82;21487;-53
2021/09/25 07:02:38;;;;;;;1.50;0.70;;;;;;;11.43;93.43;100252.20;1735197;82;21787;-54
2021/09/25 07:05:07;;;;;;;3.08;0.80;;;;;;;11.45;91.89;100253.84;1735000;82;20945;-52
2021/09/25 07:07:34;;;;;;;3.20;0.90;;;;;;;11.50;92.04;100262.81;1735202;82;20996;-52
2021/09/25 07:10:04;;;;;;;0.98;0.80;;;;;;;11.52;91.65;100267.97;1734984;81;20909;-52
2021/09/25 07:12:31;;;;;;;3.50;0.80;;;;;;;11.60;92.24;100266.02;1734971;82;21012;-54
2021/09/25 07:14:58;;;;;;;1.50;0.75;;;;;;;11.71;92.55;100270.47;1714015;82;21065;-52
2021/09/25 07:17:25;;;;;;;2.37;0.93;;;;;;;11.75;91.48;100273.42;1735231;82;21000;-53
2021/09/25 07:19:52;;;;;;;4.72;0.90;;;;;;;11.75;90.59;100285.09;1735163;81;21008;-52
2021/09/25 07:22:19;;;;;;;1.67;0.68;;;;;;;11.75;90.46;100283.80;1735003;82;20972;-52
2021/09/25 07:24:45;;;;;;;1.15;0.62;;;;;;;11.82;90.73;100284.45;1713879;82;20980;-52
2021/09/25 07:27:12;;;;;;;0.90;0.90;;;;;;;11.91;88.98;100286.83;1714299;82;21036;-55
2021/09/25 07:29:38;;;;;;;1.27;0.78;;;;;;;11.95;89.21;100292.77;1735182;82;20992;-55
2021/09/25 07:32:06;;;;;;;17.02;1.50;;;;;;;12.01;89.06;100292.66;1735256;81;20976;-54
2021/09/25 07:34:32;;;;;;;0.80;0.70;;;;;;;12.11;89.50;100292.39;1738941;82;21494;-53
2021/09/25 07:36:59;;;;;;;0.93;0.80;;;;;;;12.18;87.91;100305.59;1735051;81;21019;-53
2021/09/25 07:39:25;;;;;;;1.77;0.80;;;;;;;12.17;87.66;100302.16;1735080;81;21782;-53
2021/09/25 07:41:51;;;;;;;2.92;0.60;;;;;;;12.28;86.54;100305.77;1713891;82;20941;-52
2021/09/25 07:44:18;;;;;;;1.57;0.60;;;;;;;12.24;85.13;100300.22;1714203;82;20960;-53
2021/09/25 07:46:44;;;;;;;1.10;1.00;;;;;;;12.31;85.79;100304.80;1735051;81;21478;-54
2021/09/25 07:49:10;;;;;;;7.45;0.88;;;;;;;12.41;84.28;100302.80;1734990;81;20964;-53
2021/09/25 07:51:37;;;;;;;1.05;0.90;;;;;;;12.44;83.83;100302.28;1735065;81;21052;-52
2021/09/25 07:54:03;;;;;;;0.60;0.60;;;;;;;12.42;84.59;100310.56;1740901;81;21023;-55
2021/09/25 07:56:30;;;;;;;0.80;0.78;;;;;;;12.40;85.49;100307.59;1749162;82;20991;-53
2021/09/25 07:58:56;;;;;;;7.58;1.35;;;;;;;12.35;85.33;100321.98;1721171;82;21391;-53
2021/09/25 08:01:23;;;;;;;5.37;0.62;;;;;;;12.28;85.52;100323.06;1748919;82;20975;-54
2021/09/25 08:03:49;;;;;;;2.65;0.53;;;;;;;12.18;84.94;100332.41;1749011;82;21092;-55
2021/09/25 08:06:16;;;;;;;2.05;0.60;;;;;;;12.07;85.56;100329.23;1749119;82;21513;-54
2021/09/25 08:08:42;;;;;;;0.85;0.55;;;;;;;11.99;86.00;100334.59;1749097;82;20997;-54
2021/09/25 08:11:08;;;;;;;0.57;0.57;;;;;;;12.01;86.98;100336.75;1749228;82;20983;-54
2021/09/25 08:13:35;;;;;;;19.10;1.60;;;;;;;12.01;86.26;100335.89;1748931;81;21569;-54
2021/09/25 08:16:02;;;;;;;1.82;0.80;;;;;;;11.98;86.78;100342.42;1749174;82;21118;-53
2021/09/25 08:18:28;;;;;;;0.68;0.62;;;;;;;11.92;86.95;100346.02;1721385;82;20943;-53
2021/09/25 08:20:55;;;;;;;0.75;0.60;;;;;;;11.90;87.47;100343.91;1721236;82;20945;-55
2021/09/25 08:23:21;;;;;;;4.90;0.65;;;;;;;11.97;86.97;100353.23;1748988;82;20980;-53
2021/09/25 08:25:48;;;;;;;1.02;0.70;;;;;;;12.08;86.79;100358.17;1749170;82;21007;-54
2021/09/25 08:28:14;;;;;;;1.55;0.78;;;;;;;12.24;86.11;100360.38;1749110;80;21138;-55
2021/09/25 08:30:41;;;;;;;19.30;1.00;;;;;;;12.38;86.30;100361.30;1749008;82;21027;-55
2021/09/25 08:33:07;;;;;;;1.70;1.07;;;;;;;12.53;83.95;100367.38;1749104;82;21007;-55
2021/09/25 08:35:34;;;;;;;41.37;2.05;;;;;;;12.61;82.89;100368.00;1749133;82;21487;-53
2021/09/25 08:38:01;;;;;;;0.50;0.50;;;;;;;12.80;83.83;100372.67;1749350;82;22029;-56
2021/09/25 08:40:27;;;;;;;3.20;0.68;;;;;;;12.92;82.99;100371.47;1749384;82;21063;-52
2021/09/25 08:42:54;;;;;;;1.75;0.70;;;;;;;13.00;83.34;100375.98;1749210;82;20924;-54
2021/09/25 08:45:22;;;;;;;22.45;1.65;;;;;;;13.07;82.55;100377.48;1749258;82;20972;-53
2021/09/25 08:47:48;;;;;;;10.68;1.80;;;;;;;13.19;83.01;100385.36;1749188;82;21019;-54
2021/09/25 08:50:15;;;;;;;11.15;0.90;;;;;;;13.32;82.37;100381.94;1749162;82;20956;-53
2021/09/25 08:52:42;;;;;;;22.98;1.05;;;;;;;13.35;79.98;100381.00;1749146;80;21187;-54
2021/09/25 08:55:10;;;;;;;21.45;1.20;;;;;;;13.30;80.48;100386.33;1749170;81;21022;-52
2021/09/25 08:57:36;;;;;;;1.45;0.62;;;;;;;13.41;80.90;100388.60;1749235;82;20925;-53
2021/09/25 09:00:44;;;;;;;0.68;0.68;;;;;;;13.49;77.13;100384.50;1749206;82;21493;-55
2021/09/25 09:03:31;;;;;;;1.00;0.50;;;;;;;13.45;76.33;100388.10;1721172;82;21096;-53
2021/09/25 09:06:12;;;;;;;1.15;0.70;;;;;;;13.44;77.14;100396.33;1749013;82;21237;-55
2021/09/25 09:08:39;;;;;;;0.72;0.72;;;;;;;13.40;76.63;100411.60;1749330;81;21577;-52
2021/09/25 09:11:07;;;;;;;3.67;1.37;;;;;;;13.34;77.20;100410.50;1749193;82;21007;-53
2021/09/25 09:13:38;;;;;;;0.80;0.80;;;;;;;13.26;77.44;100415.92;1721515;82;20983;-51
2021/09/25 09:16:06;;;;;;;0.70;0.70;;;;;;;13.20;79.25;100418.25;1749207;82;21537;-53
2021/09/25 09:18:35;;;;;;;2.27;0.70;;;;;;;13.20;78.67;100425.21;1749362;82;21139;-52
2021/09/25 09:21:15;;;;;;;2.15;0.98;;;;;;;13.17;79.10;100419.64;1749241;82;21533;-54
2021/09/25 09:23:51;;;;;;;2.02;0.62;;;;;;;13.18;77.74;100421.34;1749208;82;20967;-55
2021/09/25 09:26:25;;;;;;;0.70;0.70;;;;;;;13.21;78.55;100418.66;1721566;82;20948;-55
2021/09/25 09:28:54;;;;;;;2.35;0.70;;;;;;;13.20;78.24;100422.14;1749068;81;20972;-55
2021/09/25 09:31:21;;;;;;;0.95;0.72;;;;;;;13.25;79.60;100419.85;1749246;82;21545;-53
2021/09/25 09:34:00;;;;;;;2.72;1.05;;;;;;;13.23;78.69;100426.41;1749076;82;21015;-55
2021/09/25 09:36:41;;;;;;;1.47;0.90;;;;;;;13.13;79.15;100430.16;1749180;80;21034;-52
2021/09/25 09:39:17;;;;;;;1.05;0.80;;;;;;;13.07;80.09;100420.83;1721341;82;20987;-54
2021/09/25 09:41:53;;;;;;;3.70;1.00;;;;;;;13.06;78.38;100429.52;1749191;82;22154;-56
2021/09/25 09:44:24;;;;;;;151.90;5.20;;;;;;;13.09;78.69;100422.93;1748541;82;21085;-53
2021/09/25 09:46:58;;;;;;;169.40;6.97;;;;;;;13.17;79.09;100424.84;1749277;82;20976;-55
2021/09/25 09:49:33;;;;;;;29.98;2.40;;;;;;;13.32;78.65;100430.02;1749298;82;21576;-54
2021/09/25 09:52:13;;;;;;;7.95;1.10;;;;;;;13.49;78.77;100436.03;1749231;82;21007;-53
2021/09/25 09:54:43;;;;;;;7.45;1.30;;;;;;;13.67;77.42;100428.56;1748418;81;20945;-57
2021/09/25 09:57:12;;;;;;;4.55;1.20;;;;;;;13.97;76.92;100432.84;1748647;82;21802;-54
2021/09/25 09:59:40;;;;;;;12.65;1.62;;;;;;;14.01;73.80;100434.43;1749121;82;20979;-54
2021/09/25 10:02:07;;;;;;;18.77;2.02;;;;;;;13.88;75.23;100431.38;1749102;82;20956;-53
2021/09/25 10:04:34;;;;;;;22.45;1.72;;;;;;;13.89;73.96;100425.28;1749238;82;20904;-53
2021/09/25 10:07:01;;;;;;;21.93;2.75;;;;;;;13.85;74.95;100429.72;1749097;82;20897;-55
2021/09/25 10:09:30;;;;;;;5.83;1.20;;;;;;;13.83;74.71;100432.82;1749245;82;21182;-54
2021/09/25 10:11:59;;;;;;;8.95;1.50;;;;;;;13.81;75.08;100439.00;1749168;82;21558;-55
2021/09/25 10:14:29;;;;;;;2.02;1.32;;;;;;;13.82;75.44;100445.90;1749102;82;20933;-55
2021/09/25 10:16:59;;;;;;;2.50;1.37;;;;;;;13.78;75.81;100449.03;1748998;82;20944;-54
2021/09/25 10:19:30;;;;;;;12.05;1.92;;;;;;;13.69;75.11;100454.08;1749165;82;20932;-55
2021/09/25 10:22:15;;;;;;;5.55;1.30;;;;;;;13.59;75.30;100457.87;1748996;82;21111;-53
2021/09/25 10:24:54;;;;;;;2.23;1.30;;;;;;;13.45;75.49;100464.34;1749149;81;20959;-55
2021/09/25 10:27:21;;;;;;;1.10;1.10;;;;;;;13.34;75.09;100468.98;1749075;80;20983;-53
2021/09/25 10:29:50;;;;;;;8.73;1.85;;;;;;;13.30;76.49;100472.11;1721152;82;21541;-54
2021/09/25 10:32:29;;;;;;;3.87;1.37;;;;;;;13.29;76.25;100479.52;1749210;82;20951;-52
2021/09/25 10:35:13;;;;;;;1.30;1.20;;;;;;;13.26;75.58;100481.34;1749153;82;21134;-53
2021/09/25 10:37:49;;;;;;;7.42;1.67;;;;;;;13.28;76.88;100487.38;1748962;82;20972;-53
2021/09/25 10:40:21;;;;;;;11.40;1.27;;;;;;;13.34;76.88;100479.39;1749106;82;21505;-52
2021/09/25 10:42:56;;;;;;;4.42;1.40;;;;;;;13.40;76.62;100486.16;1749110;82;21038;-54
2021/09/25 10:45:38;;;;;;;2.60;1.70;;;;;;;13.41;76.75;100486.56;1749413;82;21517;-55
2021/09/25 10:48:15;;;;;;;2.67;1.30;;;;;;;13.34;76.46;100491.92;1748951;82;21106;-54
2021/09/25 10:51:00;;;;;;;2.62;1.40;;;;;;;13.28;75.20;100494.70;1746591;82;20920;-55
2021/09/25 10:53:39;;;;;;;24.15;3.47;;;;;;;13.23;77.23;100490.93;1721546;82;21588;-52
2021/09/25 10:56:15;;;;;;;1.75;1.60;;;;;;;13.22;77.62;100495.73;1717630;82;20979;-53
2021/09/25 10:58:41;;;;;;;9.28;1.92;;;;;;;13.14;76.66;100505.97;1745571;82;20960;-52
2021/09/25 11:01:11;;;;;;;10.93;1.50;;;;;;;13.02;77.16;100505.86;1745318;82;21182;-52
2021/09/25 11:03:46;;;;;;;1.98;1.37;;;;;;;12.99;77.65;100499.42;1745430;82;20971;-56
2021/09/25 11:06:25;;;;;;;14.18;1.45;;;;;;;12.93;77.44;100509.09;1745542;82;20928;-55
2021/09/25 11:09:08;;;;;;;3.62;1.60;;;;;;;12.92;78.90;100500.06;1716025;82;20917;-54
2021/09/25 11:12:03;;;;;;;7.72;1.85;;;;;;;12.95;78.78;100507.77;1745539;82;21434;-55
2021/09/25 11:14:42;;;;;;;5.67;1.45;;;;;;;12.96;79.04;100516.40;1716277;82;21311;-55
2021/09/25 11:17:24;;;;;;;3.75;1.72;;;;;;;12.93;78.77;100518.19;1745335;81;20956;-53
2021/09/25 11:20:01;;;;;;;4.00;1.82;;;;;;;12.94;79.60;100516.00;1741072;81;21018;-54
2021/09/25 11:22:37;;;;;;;4.80;1.95;;;;;;;12.96;80.00;100521.59;1745392;82;20952;-54
2021/09/25 11:25:09;;;;;;;;;;;;;;;13.08;80.32;100521.27;1747980;82;20935;-55
2021/09/25 11:27:42;;;;;;;4.80;2.20;;;;;;;13.45;80.13;100511.14;1744866;82;21858;-54
2021/09/25 11:30:19;;;;;;;4.08;2.30;;;;;;;13.71;77.27;100512.10;1745390;81;21494;-55